sensor_id;sensor_type;location;lat;lon;timestamp;pressure;altitude;pressure_sealevel;temperature;humidity
4123;BME280;2075;51.062;6.920;2023-04-02T00:01:16;-11667.00;;;-144.48;100.00
4123;BME280;2075;51.062;6.920;2023-04-02T00:04:12;-11667.00;;;-144.48;100.00
4123;BME280;2075;51.062;6.920;2023-04-02T00:07:22;-11667.00;;;-144.48;100.00
4123;BME280;2075;51.062;6.920;2023-04-02T00:10:25;-11665.53;;;-144.48;100.00
4123;BME280;2075;51.062;6.920;2023-04-02T00:13:21;-11665.53;;;-144.48;100.00
4123;BME280;2075;51.062;6.920;2023-04-02T00:16:11;-11665.53;;;-144.48;100.00
4123;BME280;2075;51.062;6.920;2023-04-02T00:19:03;-11667.00;;;-144.48;100.00
4123;BME280;2075;51.062;6.920;2023-04-02T00:21:50;-11667.00;;;-144.48;100.00
4123;BME280;2075;51.062;6.920;2023-04-02T00:24:39;-11413.53;;;-144.48;100.00
4123;BME280;2075;51.062;6.920;2023-04-02T00:27:26;-11413.53;;;-144.48;100.00
4123;BME280;2075;51.062;6.920;2023-04-02T00:30:13;-11161.53;;;-144.48;100.00
4123;BME280;2075;51.062;6.920;2023-04-02T00:33:00;-10153.28;;;-144.48;100.00
4123;BME280;2075;51.062;6.920;2023-04-02T00:35:49;-9901.19;;;-144.48;100.00
4123;BME280;2075;51.062;6.920;2023-04-02T00:38:37;-8135.88;;;-144.48;100.00
4123;BME280;2075;51.062;6.920;2023-04-02T00:41:30;-7883.59;;;-144.48;100.00
4123;BME280;2075;51.062;6.920;2023-04-02T00:44:20;-6117.19;;;-144.48;100.00
4123;BME280;2075;51.062;6.920;2023-04-02T00:47:14;-6369.59;;;-144.48;100.00
4123;BME280;2075;51.062;6.920;2023-04-02T00:50:06;-5359.88;;;-144.48;100.00
4123;BME280;2075;51.062;6.920;2023-04-02T00:53:06;-4602.38;;;-144.48;100.00
4123;BME280;2075;51.062;6.920;2023-04-02T00:55:56;-3592.09;;;-144.48;100.00
4123;BME280;2075;51.062;6.920;2023-04-02T00:58:49;-3086.84;;;-144.48;100.00
4123;BME280;2075;51.062;6.920;2023-04-02T01:01:36;-3339.50;;;-144.48;100.00
4123;BME280;2075;51.062;6.920;2023-04-02T01:04:29;-3844.69;;;-144.48;100.00
4123;BME280;2075;51.062;6.920;2023-04-02T01:07:23;-4602.38;;;-144.48;100.00
4123;BME280;2075;51.062;6.920;2023-04-02T01:10:27;-3339.50;;;-144.48;100.00
4123;BME280;2075;51.062;6.920;2023-04-02T01:13:24;-3844.69;;;-144.48;100.00
4123;BME280;2075;51.062;6.920;2023-04-02T01:16:19;-2328.84;;;-144.48;100.00
4123;BME280;2075;51.062;6.920;2023-04-02T01:19:24;-2581.53;;;-144.48;100.00
4123;BME280;2075;51.062;6.920;2023-04-02T01:22:21;-1823.38;;;-144.48;100.00
4123;BME280;2075;51.062;6.920;2023-04-02T01:25:16;-53.69;;;-144.48;100.00
4123;BME280;2075;51.062;6.920;2023-04-02T01:28:09;-1570.63;;;-144.48;100.00
4123;BME280;2075;51.062;6.920;2023-04-02T01:31:00;-2328.84;;;-144.48;100.00
4123;BME280;2075;51.062;6.920;2023-04-02T01:33:47;-2076.13;;;-144.48;100.00
4123;BME280;2075;51.062;6.920;2023-04-02T01:36:40;-2076.13;;;-144.48;100.00
4123;BME280;2075;51.062;6.920;2023-04-02T01:39:39;-1317.84;;;-144.48;100.00
4123;BME280;2075;51.062;6.920;2023-04-02T01:42:35;-306.56;;;-144.48;100.00
4123;BME280;2075;51.062;6.920;2023-04-02T01:45:24;199.19;;;-144.48;100.00
4123;BME280;2075;51.062;6.920;2023-04-02T01:48:17;452.09;;;-144.48;100.00
4123;BME280;2075;51.062;6.920;2023-04-02T01:51:06;957.97;;;-144.48;100.00
4123;BME280;2075;51.062;6.920;2023-04-02T01:53:52;2729.16;;;-144.48;100.00
4123;BME280;2075;51.062;6.920;2023-04-02T01:56:39;3235.38;;;-144.48;100.00
4123;BME280;2075;51.062;6.920;2023-04-02T01:59:25;5007.78;;;-144.48;100.00
4123;BME280;2075;51.062;6.920;2023-04-02T02:02:20;6021.03;;;-144.48;100.00
4123;BME280;2075;51.062;6.920;2023-04-02T02:05:11;5514.38;;;-144.48;100.00
4123;BME280;2075;51.062;6.920;2023-04-02T02:08:00;4501.28;;;-144.48;100.00
4123;BME280;2075;51.062;6.920;2023-04-02T02:10:53;4501.28;;;-144.48;100.00
4123;BME280;2075;51.062;6.920;2023-04-02T02:13:54;9062.59;;;-144.48;100.00
4123;BME280;2075;51.062;6.920;2023-04-02T02:16:41;11091.88;;;-144.48;100.00
4123;BME280;2075;51.062;6.920;2023-04-02T02:19:31;9823.44;;;-144.48;100.00
4123;BME280;2075;51.062;6.920;2023-04-02T02:22:25;9316.19;;;-144.48;100.00
4123;BME280;2075;51.062;6.920;2023-04-02T02:25:13;9823.44;;;-144.48;100.00
4123;BME280;2075;51.062;6.920;2023-04-02T02:28:04;9823.44;;;-144.48;100.00
4123;BME280;2075;51.062;6.920;2023-04-02T02:30:52;10330.75;;;-144.48;100.00
4123;BME280;2075;51.062;6.920;2023-04-02T02:33:42;11345.63;;;-144.48;100.00
4123;BME280;2075;51.062;6.920;2023-04-02T02:36:34;11091.88;;;-144.48;100.00
4123;BME280;2075;51.062;6.920;2023-04-02T02:39:25;10077.09;;;-144.48;100.00
4123;BME280;2075;51.062;6.920;2023-04-02T02:42:18;10330.75;;;-144.48;100.00
4123;BME280;2075;51.062;6.920;2023-04-02T02:45:13;12107.00;;;-144.48;100.00
4123;BME280;2075;51.062;6.920;2023-04-02T02:48:01;10838.16;;;-144.48;100.00
4123;BME280;2075;51.062;6.920;2023-04-02T02:50:48;11345.63;;;-144.48;100.00
4123;BME280;2075;51.062;6.920;2023-04-02T02:53:44;12868.53;;;-144.48;100.00
4123;BME280;2075;51.062;6.920;2023-04-02T02:56:37;14646.13;;;-144.48;100.00
4123;BME280;2075;51.062;6.920;2023-04-02T02:59:24;17187.19;;;-144.48;100.00
4123;BME280;2075;51.062;6.920;2023-04-02T03:02:12;16678.81;;;-144.48;100.00
4123;BME280;2075;51.062;6.920;2023-04-02T03:04:59;16933.00;;;-144.48;100.00
4123;BME280;2075;51.062;6.920;2023-04-02T03:07:46;17187.19;;;-144.48;100.00
4123;BME280;2075;51.062;6.920;2023-04-02T03:10:36;12614.66;;;-144.48;100.00
4123;BME280;2075;51.062;6.920;2023-04-02T03:13:30;7288.00;;;-144.48;100.00
4123;BME280;2075;51.062;6.920;2023-04-02T03:16:22;3994.88;;;-144.48;100.00
4123;BME280;2075;51.062;6.920;2023-04-02T03:19:21;2223.00;;;-144.48;100.00
4123;BME280;2075;51.062;6.920;2023-04-02T03:22:15;2476.06;;;-144.48;100.00
4123;BME280;2075;51.062;6.920;2023-04-02T03:25:14;1969.97;;;-144.48;100.00
4123;BME280;2075;51.062;6.920;2023-04-02T03:28:07;957.97;;;-144.48;100.00
4123;BME280;2075;51.062;6.920;2023-04-02T03:31:00;199.19;;;-144.48;100.00
4123;BME280;2075;51.062;6.920;2023-04-02T03:33:50;-1065.06;;;-144.48;100.00
4123;BME280;2075;51.062;6.920;2023-04-02T03:36:41;-559.44;;;-144.48;100.00
4123;BME280;2075;51.062;6.920;2023-04-02T03:39:34;-812.25;;;-144.48;100.00
4123;BME280;2075;51.062;6.920;2023-04-02T03:42:24;-559.44;;;-144.48;100.00
4123;BME280;2075;51.062;6.920;2023-04-02T03:45:17;-1317.84;;;-144.48;100.00
4123;BME280;2075;51.062;6.920;2023-04-02T03:48:09;-1570.63;;;-144.48;100.00
4123;BME280;2075;51.062;6.920;2023-04-02T03:51:00;452.09;;;-144.48;100.00
4123;BME280;2075;51.062;6.920;2023-04-02T03:53:48;957.97;;;-144.48;100.00
4123;BME280;2075;51.062;6.920;2023-04-02T03:56:35;2982.25;;;-144.48;100.00
4123;BME280;2075;51.062;6.920;2023-04-02T03:59:33;5767.69;;;-144.48;100.00
4123;BME280;2075;51.062;6.920;2023-04-02T04:02:33;4754.53;;;-144.48;100.00
4123;BME280;2075;51.062;6.920;2023-04-02T04:05:27;3994.88;;;-144.48;100.00
4123;BME280;2075;51.062;6.920;2023-04-02T04:08:17;5007.78;;;-144.48;100.00
4123;BME280;2075;51.062;6.920;2023-04-02T04:11:08;5261.06;;;-144.48;100.00
4123;BME280;2075;51.062;6.920;2023-04-02T04:14:00;8048.44;;;-144.48;100.00
4123;BME280;2075;51.062;6.920;2023-04-02T04:16:52;7288.00;;;-144.48;100.00
4123;BME280;2075;51.062;6.920;2023-04-02T04:19:45;7541.47;;;-144.48;100.00
4123;BME280;2075;51.062;6.920;2023-04-02T04:22:35;8301.94;;;-144.48;100.00
4123;BME280;2075;51.062;6.920;2023-04-02T04:25:32;7034.56;;;-144.48;100.00
4123;BME280;2075;51.062;6.920;2023-04-02T04:28:32;9569.81;;;-144.48;100.00
4123;BME280;2075;51.062;6.920;2023-04-02T04:31:26;9823.44;;;-144.48;100.00
4123;BME280;2075;51.062;6.920;2023-04-02T04:34:19;10330.75;;;-144.48;100.00
4123;BME280;2075;51.062;6.920;2023-04-02T04:37:16;13884.19;;;-144.48;100.00
4123;BME280;2075;51.062;6.920;2023-04-02T04:40:14;14138.13;;;-144.48;100.00
4123;BME280;2075;51.062;6.920;2023-04-02T04:43:07;14138.13;;;-144.48;100.00
4123;BME280;2075;51.062;6.920;2023-04-02T04:45:59;16424.66;;;-144.48;100.00
4123;BME280;2075;51.062;6.920;2023-04-02T04:48:51;16678.81;;;-144.48;100.00
4123;BME280;2075;51.062;6.920;2023-04-02T04:51:50;16170.53;;;-144.48;100.00
4123;BME280;2075;51.062;6.920;2023-04-02T04:54:45;15662.31;;;-144.48;100.00
4123;BME280;2075;51.062;6.920;2023-04-02T04:57:41;14392.13;;;-144.48;100.00
4123;BME280;2075;51.062;6.920;2023-04-02T05:00:41;15154.19;;;-144.48;100.00
4123;BME280;2075;51.062;6.920;2023-04-02T05:03:34;17441.41;;;-144.48;100.00
4123;BME280;2075;51.062;6.920;2023-04-02T05:06:36;19221.47;;;-144.48;100.00
4123;BME280;2075;51.062;6.920;2023-04-02T05:09:37;20493.53;;;-144.48;100.00
4123;BME280;2075;51.062;6.920;2023-04-02T05:12:35;16933.00;;;-144.48;100.00
4123;BME280;2075;51.062;6.920;2023-04-02T05:15:32;16933.00;;;-144.48;100.00
4123;BME280;2075;51.062;6.920;2023-04-02T05:18:27;16170.53;;;-144.48;100.00
4123;BME280;2075;51.062;6.920;2023-04-02T05:21:27;16170.53;;;-144.48;100.00
4123;BME280;2075;51.062;6.920;2023-04-02T05:24:46;14646.13;;;-144.48;100.00
4123;BME280;2075;51.062;6.920;2023-04-02T05:27:44;13630.22;;;-144.48;100.00
4123;BME280;2075;51.062;6.920;2023-04-02T05:30:45;12360.81;;;-144.48;100.00
4123;BME280;2075;51.062;6.920;2023-04-02T05:33:39;9569.81;;;-144.48;100.00
4123;BME280;2075;51.062;6.920;2023-04-02T05:36:30;11345.63;;;-144.48;100.00
4123;BME280;2075;51.062;6.920;2023-04-02T05:39:24;11599.41;;;-144.48;100.00
4123;BME280;2075;51.062;6.920;2023-04-02T05:45:12;9569.81;;;-144.48;100.00
4123;BME280;2075;51.062;6.920;2023-04-02T05:48:20;8048.44;;;-144.48;100.00
4123;BME280;2075;51.062;6.920;2023-04-02T05:51:14;9062.59;;;-144.48;100.00
4123;BME280;2075;51.062;6.920;2023-04-02T05:54:06;8555.47;;;-144.48;100.00
4123;BME280;2075;51.062;6.920;2023-04-02T05:57:14;10838.16;;;-144.48;100.00
4123;BME280;2075;51.062;6.920;2023-04-02T06:00:08;11599.41;;;-144.48;100.00
4123;BME280;2075;51.062;6.920;2023-04-02T06:03:03;7541.47;;;-144.48;100.00
4123;BME280;2075;51.062;6.920;2023-04-02T06:05:58;5007.78;;;-144.48;100.00
4123;BME280;2075;51.062;6.920;2023-04-02T06:08:59;3741.69;;;-144.48;100.00
4123;BME280;2075;51.062;6.920;2023-04-02T06:11:53;2223.00;;;-144.48;100.00
4123;BME280;2075;51.062;6.920;2023-04-02T06:14:41;3994.88;;;-144.48;100.00
4123;BME280;2075;51.062;6.920;2023-04-02T06:17:27;1210.94;;;-144.48;100.00
4123;BME280;2075;51.062;6.920;2023-04-02T06:20:17;-1065.06;;;-144.48;100.00
4123;BME280;2075;51.062;6.920;2023-04-02T06:23:09;-2834.19;;;-144.48;100.00
4123;BME280;2075;51.062;6.920;2023-04-02T06:26:00;-1823.38;;;-144.48;100.00
4123;BME280;2075;51.062;6.920;2023-04-02T06:28:51;-1570.63;;;-144.48;100.00
4123;BME280;2075;51.062;6.920;2023-04-02T06:31:44;-812.25;;;-144.48;100.00
4123;BME280;2075;51.062;6.920;2023-04-02T06:34:35;452.09;;;-144.48;100.00
4123;BME280;2075;51.062;6.920;2023-04-02T06:37:31;1969.97;;;-144.48;100.00
4123;BME280;2075;51.062;6.920;2023-04-02T06:40:39;2729.16;;;-144.48;100.00
4123;BME280;2075;51.062;6.920;2023-04-02T06:43:36;3741.69;;;-144.48;100.00
4123;BME280;2075;51.062;6.920;2023-04-02T06:46:45;2729.16;;;-144.48;100.00
4123;BME280;2075;51.062;6.920;2023-04-02T06:49:38;3741.69;;;-144.48;100.00
4123;BME280;2075;51.062;6.920;2023-04-02T06:52:30;2729.16;;;-144.48;100.00
4123;BME280;2075;51.062;6.920;2023-04-02T06:55:29;5514.38;;;-144.48;100.00
4123;BME280;2075;51.062;6.920;2023-04-02T06:58:18;6527.75;;;-144.48;100.00
4123;BME280;2075;51.062;6.920;2023-04-02T07:01:04;10838.16;;;-144.48;100.00
4123;BME280;2075;51.062;6.920;2023-04-02T07:03:58;11599.41;;;-144.48;100.00
4123;BME280;2075;51.062;6.920;2023-04-02T07:06:49;14392.13;;;-144.48;100.00
4123;BME280;2075;51.062;6.920;2023-04-02T07:09:44;18712.78;;;-144.48;100.00
4123;BME280;2075;51.062;6.920;2023-04-02T07:12:30;21511.53;;;-144.48;100.00
4123;BME280;2075;51.062;6.920;2023-04-02T07:15:18;22784.44;;;-144.48;100.00
4123;BME280;2075;51.062;6.920;2023-04-02T07:18:04;27371.03;;;-144.48;100.00
4123;BME280;2075;51.062;6.920;2023-04-02T07:20:53;28901.31;;;-144.48;100.00
4123;BME280;2075;51.062;6.920;2023-04-02T07:23:41;30432.28;;;-144.48;100.00
4123;BME280;2075;51.062;6.920;2023-04-02T07:26:27;33496.31;;;-144.48;100.00
4123;BME280;2075;51.062;6.920;2023-04-02T07:29:14;31708.63;;;-144.48;100.00
4123;BME280;2075;51.062;6.920;2023-04-02T07:32:02;27116.06;;;-144.48;100.00
4123;BME280;2075;51.062;6.920;2023-04-02T07:34:47;31198.03;;;-144.48;100.00
4123;BME280;2075;51.062;6.920;2023-04-02T07:37:32;33240.88;;;-144.48;100.00
4123;BME280;2075;51.062;6.920;2023-04-02T07:40:19;37841.84;;;-144.48;100.00
4123;BME280;2075;51.062;6.920;2023-04-02T07:43:06;40400.69;;;-144.48;100.00
4123;BME280;2075;51.062;6.920;2023-04-02T07:45:51;48088.88;;;-144.48;100.00
4123;BME280;2075;51.062;6.920;2023-04-02T07:48:38;48088.88;;;-144.48;100.00
4123;BME280;2075;51.062;6.920;2023-04-02T07:51:24;43730.06;;;-144.48;100.00
4123;BME280;2075;51.062;6.920;2023-04-02T07:54:10;47832.31;;;-144.48;100.00
4123;BME280;2075;51.062;6.920;2023-04-02T07:56:56;44755.16;;;-144.48;100.00
4123;BME280;2075;51.062;6.920;2023-04-02T07:59:41;46036.97;;;-144.48;100.00
4123;BME280;2075;51.062;6.920;2023-04-02T08:02:27;47062.78;;;-144.48;100.00
4123;BME280;2075;51.062;6.920;2023-04-02T08:05:13;47062.78;;;-144.48;100.00
4123;BME280;2075;51.062;6.920;2023-04-02T08:07:59;52196.44;;;-144.48;100.00
4123;BME280;2075;51.062;6.920;2023-04-02T08:10:45;55537.47;;;-144.48;100.00
4123;BME280;2075;51.062;6.920;2023-04-02T08:13:31;60426.50;;;-144.48;100.00
4123;BME280;2075;51.062;6.920;2023-04-02T08:16:17;62229.50;;;-144.48;100.00
4123;BME280;2075;51.062;6.920;2023-04-02T08:19:03;67902.25;;;-144.48;100.00
4123;BME280;2075;51.062;6.920;2023-04-02T08:21:50;63260.19;;;-144.48;100.00
4123;BME280;2075;51.062;6.920;2023-04-02T08:24:37;67128.13;;;-144.48;100.00
4123;BME280;2075;51.062;6.920;2023-04-02T08:27:23;66612.16;;;-144.48;100.00
4123;BME280;2075;51.062;6.920;2023-04-02T08:30:11;65322.56;;;-144.48;100.00
4123;BME280;2075;51.062;6.920;2023-04-02T08:32:57;64291.22;;;-144.48;100.00
4123;BME280;2075;51.062;6.920;2023-04-02T08:35:42;62487.13;;;-144.48;100.00
4123;BME280;2075;51.062;6.920;2023-04-02T08:38:29;68160.31;;;-144.48;100.00
4123;BME280;2075;51.062;6.920;2023-04-02T08:41:20;71618.03;;;-144.48;100.00
4123;BME280;2075;51.062;6.920;2023-04-02T08:44:24;76514.00;;;-144.48;100.00
4123;BME280;2075;51.062;6.920;2023-04-02T08:47:13;79917.41;;;-144.48;100.00
4123;BME280;2075;51.062;6.920;2023-04-02T08:50:04;82757.16;;;-144.48;100.00
4123;BME280;2075;51.062;6.920;2023-04-02T08:52:55;81058.69;;;-144.48;100.00
4123;BME280;2075;51.062;6.920;2023-04-02T08:55:47;86833.69;;;-144.48;100.00
4123;BME280;2075;51.062;6.920;2023-04-02T08:58:40;87865.75;;;-144.48;100.00
4123;BME280;2075;51.062;6.920;2023-04-02T09:01:33;91751.34;;;-144.48;100.00
4123;BME280;2075;51.062;6.920;2023-04-02T09:04:23;91609.25;;;-144.48;100.00
4123;BME280;2075;51.062;6.920;2023-04-02T09:07:11;91298.66;;;-144.48;100.00
4123;BME280;2075;51.062;6.920;2023-04-02T09:09:57;92437.63;;;-144.48;100.00
4123;BME280;2075;51.062;6.920;2023-04-02T09:12:50;93599.31;;;-144.48;100.00
4123;BME280;2075;51.062;6.920;2023-04-02T09:15:36;93495.72;;;-144.48;100.00
4123;BME280;2075;51.062;6.920;2023-04-02T09:18:21;92543.22;;;-144.48;100.00
4123;BME280;2075;51.062;6.920;2023-04-02T09:21:21;93916.22;;;-144.48;100.00
4123;BME280;2075;51.062;6.920;2023-04-02T09:24:11;94285.94;;;-144.48;100.00
4123;BME280;2075;51.062;6.920;2023-04-02T09:26:57;94233.13;;;-144.48;100.00
4123;BME280;2075;51.062;6.920;2023-04-02T09:29:45;94346.91;;;-144.48;100.00
4123;BME280;2075;51.062;6.920;2023-04-02T09:32:42;94383.47;;;-144.48;100.00
4123;BME280;2075;51.062;6.920;2023-04-02T09:35:31;94546.03;;;-144.48;100.00
4123;BME280;2075;51.062;6.920;2023-04-02T09:38:20;94517.56;;;-144.48;100.00
4123;BME280;2075;51.062;6.920;2023-04-02T09:41:18;94375.34;;;-144.48;100.00
4123;BME280;2075;51.062;6.920;2023-04-02T09:44:13;94249.38;;;-144.48;100.00
4123;BME280;2075;51.062;6.920;2023-04-02T09:47:09;93684.63;;;-144.48;100.00
4123;BME280;2075;51.062;6.920;2023-04-02T09:50:30;93593.22;;;-144.48;100.00
4123;BME280;2075;51.062;6.920;2023-04-02T09:53:27;94363.16;;;-144.48;99.79
4123;BME280;2075;51.062;6.920;2023-04-02T09:56:16;94304.25;;;-144.48;97.98
4123;BME280;2075;51.062;6.920;2023-04-02T09:59:05;94529.75;;;-144.48;97.16
4123;BME280;2075;51.062;6.920;2023-04-02T10:01:58;94478.97;;;-144.48;97.68
4123;BME280;2075;51.062;6.920;2023-04-02T10:04:48;94436.31;;;-144.48;97.85
4123;BME280;2075;51.062;6.920;2023-04-02T10:07:40;94505.38;;;-144.48;96.08
4123;BME280;2075;51.062;6.920;2023-04-02T10:10:33;94598.84;;;-144.48;95.23
4123;BME280;2075;51.062;6.920;2023-04-02T10:13:24;94720.75;;;-144.48;95.68
4123;BME280;2075;51.062;6.920;2023-04-02T10:16:13;94590.72;;;-144.48;96.25
4123;BME280;2075;51.062;6.920;2023-04-02T10:19:18;94489.13;;;-144.48;95.27
4123;BME280;2075;51.062;6.920;2023-04-02T10:22:11;94574.47;;;-144.48;96.42
4123;BME280;2075;51.062;6.920;2023-04-02T10:24:58;94550.09;;;-144.48;97.18
4123;BME280;2075;51.062;6.920;2023-04-02T10:27:49;94550.09;;;-144.48;96.95
4123;BME280;2075;51.062;6.920;2023-04-02T10:30:47;94558.22;;;-144.48;96.47
4123;BME280;2075;51.062;6.920;2023-04-02T10:33:37;94576.50;;;-144.48;95.91
4123;BME280;2075;51.062;6.920;2023-04-02T10:36:34;94649.63;;;-144.48;94.63
4123;BME280;2075;51.062;6.920;2023-04-02T10:39:29;94639.47;;;-144.48;94.93
4123;BME280;2075;51.062;6.920;2023-04-02T10:42:25;94659.81;;;-144.48;94.23
4123;BME280;2075;51.062;6.920;2023-04-02T10:45:23;94625.25;;;-144.48;95.14
4123;BME280;2075;51.062;6.920;2023-04-02T10:48:19;94643.53;;;-144.48;94.71
4123;BME280;2075;51.062;6.920;2023-04-02T10:51:13;94700.44;;;-144.48;93.35
4123;BME280;2075;51.062;6.920;2023-04-02T10:54:11;94651.66;;;-144.48;93.43
4123;BME280;2075;51.062;6.920;2023-04-02T10:57:08;94649.63;;;-144.48;90.02
4123;BME280;2075;51.062;6.920;2023-04-02T10:59:59;94779.69;;;-144.48;86.83
4123;BME280;2075;51.062;6.920;2023-04-02T11:02:53;94741.06;;;-144.48;87.18
4123;BME280;2075;51.062;6.920;2023-04-02T11:05:41;94688.25;;;-144.48;86.00
4123;BME280;2075;51.062;6.920;2023-04-02T11:08:33;94712.63;;;-144.48;84.01
4123;BME280;2075;51.062;6.920;2023-04-02T11:11:24;94741.06;;;-144.48;84.75
4123;BME280;2075;51.062;6.920;2023-04-02T11:14:14;94741.06;;;-144.48;85.64
4123;BME280;2075;51.062;6.920;2023-04-02T11:17:02;94761.41;;;-144.48;85.65
4123;BME280;2075;51.062;6.920;2023-04-02T11:19:48;94732.94;;;-144.48;86.64
4123;BME280;2075;51.062;6.920;2023-04-02T11:22:33;94718.72;;;-144.48;84.61
4123;BME280;2075;51.062;6.920;2023-04-02T11:25:20;94720.75;;;-144.48;85.20
4123;BME280;2075;51.062;6.920;2023-04-02T11:28:24;94672.00;;;-144.48;83.73
4123;BME280;2075;51.062;6.920;2023-04-02T11:31:19;94688.25;;;-144.48;83.41
4123;BME280;2075;51.062;6.920;2023-04-02T11:34:11;94716.69;;;-144.48;82.18
4123;BME280;2075;51.062;6.920;2023-04-02T11:37:02;94653.69;;;-144.48;81.94
4123;BME280;2075;51.062;6.920;2023-04-02T11:39:52;94667.94;;;-144.48;80.09
4123;BME280;2075;51.062;6.920;2023-04-02T11:42:39;94678.09;;;-144.48;80.14
4123;BME280;2075;51.062;6.920;2023-04-02T11:45:51;94712.63;;;-144.48;80.52
4123;BME280;2075;51.062;6.920;2023-04-02T11:48:38;94753.28;;;-144.48;81.23
4123;BME280;2075;51.062;6.920;2023-04-02T11:51:48;94716.69;;;-144.48;81.62
4123;BME280;2075;51.062;6.920;2023-04-02T11:54:36;94696.38;;;-144.48;81.52
4123;BME280;2075;51.062;6.920;2023-04-02T11:57:33;94716.69;;;-144.48;82.76
4123;BME280;2075;51.062;6.920;2023-04-02T12:00:30;94704.50;;;-144.48;81.09
4123;BME280;2075;51.062;6.920;2023-04-02T12:03:30;94724.81;;;-144.48;80.73
4123;BME280;2075;51.062;6.920;2023-04-02T12:06:29;94663.88;;;-144.48;82.22
4123;BME280;2075;51.062;6.920;2023-04-02T12:09:24;94653.69;;;-144.48;79.49
4123;BME280;2075;51.062;6.920;2023-04-02T12:12:23;94698.41;;;-144.48;79.18
4123;BME280;2075;51.062;6.920;2023-04-02T12:15:30;94722.78;;;-144.48;79.94
4123;BME280;2075;51.062;6.920;2023-04-02T12:18:19;94696.38;;;-144.48;80.24
4123;BME280;2075;51.062;6.920;2023-04-02T12:21:05;94716.69;;;-144.48;80.75
4123;BME280;2075;51.062;6.920;2023-04-02T12:23:54;94722.78;;;-144.48;80.35
4123;BME280;2075;51.062;6.920;2023-04-02T12:26:40;94789.84;;;-144.48;81.95
4123;BME280;2075;51.062;6.920;2023-04-02T12:29:29;94718.72;;;-144.48;81.04
4123;BME280;2075;51.062;6.920;2023-04-02T12:32:20;94737.00;;;-144.48;80.57
4123;BME280;2075;51.062;6.920;2023-04-02T12:35:26;94684.19;;;-144.48;78.44
4123;BME280;2075;51.062;6.920;2023-04-02T12:38:19;94602.91;;;-144.48;73.73
4123;BME280;2075;51.062;6.920;2023-04-02T12:41:19;94641.50;;;-144.48;73.88
4123;BME280;2075;51.062;6.920;2023-04-02T12:44:13;94592.75;;;-144.48;72.83
4123;BME280;2075;51.062;6.920;2023-04-02T12:47:00;94643.53;;;-144.48;73.51
4123;BME280;2075;51.062;6.920;2023-04-02T12:49:46;94653.69;;;-144.48;73.02
4123;BME280;2075;51.062;6.920;2023-04-02T12:52:32;94619.16;;;-144.48;72.07
4123;BME280;2075;51.062;6.920;2023-04-02T12:55:20;94444.44;;;-144.48;72.19
4123;BME280;2075;51.062;6.920;2023-04-02T12:58:23;94627.28;;;-144.48;73.20
4123;BME280;2075;51.062;6.920;2023-04-02T13:01:12;94627.28;;;-144.48;71.93
4123;BME280;2075;51.062;6.920;2023-04-02T13:03:59;94663.88;;;-144.48;72.01
4123;BME280;2075;51.062;6.920;2023-04-02T13:06:48;94631.34;;;-144.48;72.74
4123;BME280;2075;51.062;6.920;2023-04-02T13:09:40;94594.78;;;-144.48;69.33
4123;BME280;2075;51.062;6.920;2023-04-02T13:12:31;94497.25;;;-144.48;66.95
4123;BME280;2075;51.062;6.920;2023-04-02T13:15:20;94606.97;;;-144.48;64.78
4123;BME280;2075;51.062;6.920;2023-04-02T13:18:18;94596.81;;;-144.48;64.81
4123;BME280;2075;51.062;6.920;2023-04-02T13:21:04;94609.00;;;-144.48;66.30
4123;BME280;2075;51.062;6.920;2023-04-02T13:23:50;94633.38;;;-144.48;68.46
4123;BME280;2075;51.062;6.920;2023-04-02T13:26:35;94615.09;;;-144.48;67.45
4123;BME280;2075;51.062;6.920;2023-04-02T13:29:26;94625.25;;;-144.48;65.07
4123;BME280;2075;51.062;6.920;2023-04-02T13:32:13;94617.13;;;-144.48;66.02
4123;BME280;2075;51.062;6.920;2023-04-02T13:34:59;94639.47;;;-144.48;66.62
4123;BME280;2075;51.062;6.920;2023-04-02T13:37:44;94639.47;;;-144.48;66.43
4123;BME280;2075;51.062;6.920;2023-04-02T13:40:30;94633.38;;;-144.48;65.19
4123;BME280;2075;51.062;6.920;2023-04-02T13:43:17;94609.00;;;-144.48;63.38
4123;BME280;2075;51.062;6.920;2023-04-02T13:46:04;94635.41;;;-144.48;65.85
4123;BME280;2075;51.062;6.920;2023-04-02T13:48:53;94665.91;;;-144.48;65.47
4123;BME280;2075;51.062;6.920;2023-04-02T13:51:40;94639.47;;;-144.48;64.70
4123;BME280;2075;51.062;6.920;2023-04-02T13:54:31;94704.50;;;-144.48;66.62
4123;BME280;2075;51.062;6.920;2023-04-02T13:57:18;94663.88;;;-144.48;65.66
4123;BME280;2075;51.062;6.920;2023-04-02T14:00:04;94696.38;;;-144.48;66.73
4123;BME280;2075;51.062;6.920;2023-04-02T14:02:53;94639.47;;;-144.48;66.99
4123;BME280;2075;51.062;6.920;2023-04-02T14:05:47;94777.66;;;-144.48;65.27
4123;BME280;2075;51.062;6.920;2023-04-02T14:08:45;94647.59;;;-144.48;66.83
4123;BME280;2075;51.062;6.920;2023-04-02T14:11:45;94716.69;;;-144.48;68.46
4123;BME280;2075;51.062;6.920;2023-04-02T14:14:45;94714.66;;;-144.48;67.79
4123;BME280;2075;51.062;6.920;2023-04-02T14:17:45;94712.63;;;-144.48;65.83
4123;BME280;2075;51.062;6.920;2023-04-02T14:20:41;94676.06;;;-144.48;65.16
4123;BME280;2075;51.062;6.920;2023-04-02T14:23:46;94645.56;;;-144.48;64.83
4123;BME280;2075;51.062;6.920;2023-04-02T14:26:42;94704.50;;;-144.48;65.47
4123;BME280;2075;51.062;6.920;2023-04-02T14:29:37;94743.09;;;-144.48;65.01
4123;BME280;2075;51.062;6.920;2023-04-02T14:32:30;94720.75;;;-144.48;65.25
4123;BME280;2075;51.062;6.920;2023-04-02T14:35:23;94730.91;;;-144.48;67.04
4123;BME280;2075;51.062;6.920;2023-04-02T14:38:16;94712.63;;;-144.48;64.46
4123;BME280;2075;51.062;6.920;2023-04-02T14:41:09;94737.00;;;-144.48;65.40
4123;BME280;2075;51.062;6.920;2023-04-02T14:43:59;94665.91;;;-144.48;66.35
4123;BME280;2075;51.062;6.920;2023-04-02T14:46:46;94797.97;;;-144.48;64.42
4123;BME280;2075;51.062;6.920;2023-04-02T14:49:34;94728.88;;;-144.48;64.81
4123;BME280;2075;51.062;6.920;2023-04-02T14:52:26;94757.34;;;-144.48;65.27
4123;BME280;2075;51.062;6.920;2023-04-02T14:55:18;94724.81;;;-144.48;64.22
4123;BME280;2075;51.062;6.920;2023-04-02T14:58:14;94708.56;;;-144.48;64.28
4123;BME280;2075;51.062;6.920;2023-04-02T15:01:04;94728.88;;;-144.48;63.25
4123;BME280;2075;51.062;6.920;2023-04-02T15:03:57;94747.19;;;-144.48;66.47
4123;BME280;2075;51.062;6.920;2023-04-02T15:06:49;94741.06;;;-144.48;64.67
4123;BME280;2075;51.062;6.920;2023-04-02T15:09:39;94732.94;;;-144.48;64.66